• Join FlightAware (Why Join?)
  • Login
  • US Flag 
01:38PM EDT


 

Airport Tracker/Info


-or-


 

Live Flight TrackerFlight Track Log ✈ EGF2853 ✈ 24-Jul-2013 ✈ KORD - KFWA

Flight Track Log - Related Links

Times and Time Zones

All times are in EDT time to prevent confusion due to time zone crossing. See the EGF2853 flight status page for this flight to view local times or setup timezone preferences in your user account.

Time Position Orientation Groundspeed Altitude Reporting Facility
EDT Latitude Longitude Course Direction KTS MPH feet Rate Location/Type
12:37PM 41.9833 -87.8667 90° East 155 178 1,800  Level Chicago TRACON
12:38PM 41.9833 -87.8000 90° East 226 260 3,800 2,460 Climbing Chicago TRACON
12:39PM 41.9617 -87.5072 96° East  Level FlightAware Approximate
12:39PM 41.9833 -87.7000 90° East 262 302 6,800  Level Chicago TRACON
12:40PM 41.9509 -87.3769 96° East  Level FlightAware Approximate
12:40PM 41.9725 -87.5858 97° East 276 318 9,700  Level Chicago Center
12:41PM 41.9415 -87.2465 95° East  Level FlightAware Approximate
12:41PM 41.9656 -87.4700 95° East 305 351 12,100  Level Chicago Center
12:42PM 41.9333 -87.1160 90° East  Level FlightAware Approximate
12:42PM 41.9592 -87.3211 93° East 332 382 14,300  Level Chicago Center
12:43PM 41.9519 -87.1867 94° East 358 412 16,300 1,860 Climbing Chicago Center
12:44PM 41.9436 -87.0489 95° East 369 425 18,200 1,260 Climbing Chicago Center
12:45PM 41.9478 -86.9083 88° East 377 434 19,000 360 Climbing Chicago Center
12:46PM 41.9500 -86.7558 89° East 406 467 19,000  Level Chicago Center
12:47PM 41.9519 -86.5808 89° East 417 480 19,000  Level Chicago Center
12:48PM 41.9528 -86.4281 90° East 410 472 19,000  Level Chicago Center
12:49PM 41.9544 -86.2775 89° East 404 465 19,000  Level Chicago Center
12:50PM 41.9319 -86.1314 102° East 405 466 19,000  Level Chicago Center
12:51PM 41.8897 -85.9906 112° Southeast 406 467 19,000  Level Chicago Center
12:52PM 41.8142 -85.8467 125° Southeast 410 472 19,000  Level Chicago Center
12:53PM 41.7200 -85.7731 150° Southeast 398 458 19,000 -660 Level Chicago Center
12:54PM 41.6236 -85.6978 150° Southeast 404 465 17,700 -2,220 Descending Chicago Center
12:55PM 41.5264 -85.6494 160° South 386 444 14,500 -2,760 Descending Chicago Center
12:56PM 41.4094 -85.6283 172° South 356 410 12,100 -1,260 Descending Chicago Center
12:57PM 41.3231 -85.6150 173° South 322 371 12,000 -180 Descending Chicago Center
12:59PM 41.2436 -85.6022 173° South 296 341 11,800 -1,140 Descending Chicago Center
01:00PM 41.1636 -85.5917 174° South 290 334 9,700 -2,040 Descending Chicago Center
01:01PM 41.0969 -85.5475 153° Southeast 287 330 7,700 -2,160 Descending Chicago Center
01:02PM 41.0347 -85.4589 133° Southeast 279 321 5,300 -2,340 Descending Chicago Center